Data for 07/11/2018

Time Sea-Level Adjusted Pressure Absolute Pressure Temperature Relative Humidity Dew Point   
(mb) (inHg) (mb) (inHg) (C) (F) (%) (C) (F)
00:05 1021 30.15 851 25.13 19.9 67.8 31 2.3 36.1
00:10 1021 30.15 851 25.13 19.8 67.7 30 2.1 35.8
00:15 1021 30.15 851 25.13 19.8 67.6 30 2.1 35.7
00:20 1021 30.15 851 25.13 19.7 67.4 30 1.9 35.5
00:25 1022 30.18 851 25.13 19.5 67.2 31 2.2 36
00:30 1022 30.18 851 25.13 19.3 66.7 32 2.5 36.5
00:35 1022 30.18 851 25.13 19.1 66.3 33 2.6 36.7
00:40 1022 30.18 851 25.13 18.8 65.9 33 2.5 36.4
00:45 1022 30.18 851 25.13 18.8 65.8 35 3 37.4
00:50 1022 30.18 851 25.13 18.7 65.7 35 3 37.4
00:55 1022 30.18 851 25.13 18.5 65.2 36 3.3 38
01:00 1022 30.18 851 25.13 18.2 64.8 36 3.2 37.7
01:05 1022 30.18 851 25.13 18.1 64.5 38 3.5 38.4
01:10 1022 30.18 851 25.13 17.7 63.8 39 3.6 38.5
01:15 1022 30.18 851 25.13 17.4 63.3 39 3.3 37.9
01:20 1022 30.18 851 25.13 17.4 63.3 39 3.4 38.1
01:25 1022 30.18 851 25.13 17.3 63.2 39 3.3 38
01:30 1022 30.18 851 25.13 17.3 63.2 38 2.8 37.1
01:35 1022 30.18 851 25.13 17.3 63.2 38 2.9 37.2
01:40 1022 30.18 851 25.13 17.2 62.9 37 2.5 36.6
01:45 1022 30.18 851 25.13 17.2 63 36 2.3 36.2
01:50 1022 30.18 851 25.13 17.2 63 38 2.8 37
01:55 1022 30.18 851 25.13 17.1 62.8 37 2.5 36.6
02:00 1022 30.18 851 25.13 17.1 62.8 37 2.4 36.4
02:05 1022 30.18 851 25.13 17.2 62.9 37 2.6 36.6
02:10 1022 30.18 851 25.13 17 62.6 38 2.7 36.9
02:15 1022 30.18 851 25.13 16.9 62.5 40 3.2 37.7
02:20 1022 30.18 851 25.13 16.6 61.9 40 3.2 37.7
02:25 1022 30.18 851 25.13 16.5 61.6 41 3.4 38.1
02:30 1022 30.18 851 25.13 16.5 61.7 40 3.1 37.5
02:35 1022 30.18 851 25.13 16.1 61.1 43 3.8 38.9
02:40 1022 30.18 851 25.13 15.9 60.7 42 3.2 37.8
02:45 1022 30.18 851 25.13 16.1 60.9 41 3 37.4
02:50 1022 30.18 851 25.13 16 60.8 42 3.1 37.5
02:55 1022 30.18 851 25.13 15.8 60.4 42 3.1 37.6
03:00 1022 30.18 851 25.13 15.5 59.8 44 3.3 38
03:05 1022 30.18 852 25.16 15.3 59.6 43 3 37.4
03:10 1022 30.18 852 25.16 15.3 59.6 42 2.5 36.5
03:15 1022 30.18 852 25.16 15.3 59.5 44 3.3 37.9
03:20 1022 30.18 852 25.16 15.1 59.1 43 2.6 36.6
03:25 1022 30.18 852 25.16 15.1 59.3 42 2.4 36.3
03:30 1022 30.18 852 25.16 15.3 59.5 41 2.1 35.7
03:35 1022 30.18 852 25.16 15.4 59.8 40 2.1 35.8
03:40 1022 30.18 852 25.16 15.3 59.6 42 2.7 36.8
03:45 1022 30.18 852 25.16 15.1 59.2 42 2.4 36.3
03:50 1023 30.21 852 25.16 14.9 58.9 45 3.3 38
03:55 1023 30.21 852 25.16 14.6 58.2 46 3.3 37.9
04:00 1023 30.21 852 25.16 14.3 57.7 48 3.6 38.6
04:05 1023 30.21 852 25.16 14.1 57.4 49 3.5 38.3
04:10 1023 30.21 852 25.16 14.1 57.4 48 3.3 37.9
04:15 1023 30.21 852 25.16 14.2 57.6 44 2.3 36.2
04:20 1023 30.21 852 25.16 14.6 58.2 43 2.2 35.9
04:25 1023 30.21 852 25.16 14.7 58.4 44 2.6 36.6
04:30 1023 30.21 852 25.16 14.4 57.9 46 2.9 37.2
04:35 1023 30.21 852 25.16 14.1 57.4 47 3.1 37.6
04:40 1023 30.21 852 25.16 13.9 57 47 2.9 37.2
04:45 1023 30.21 852 25.16 13.8 56.9 47 2.9 37.2
04:50 1023 30.21 852 25.16 13.7 56.7 48 3.1 37.6
04:55 1023 30.21 852 25.16 13.5 56.4 48 2.9 37.2
05:00 1023 30.21 852 25.16 13.4 56.2 49 3.1 37.7
05:05 1023 30.21 852 25.16 13.3 56 50 3.2 37.7
05:10 1023 30.21 852 25.16 13.3 56 48 2.6 36.6
05:15 1023 30.21 852 25.16 13.4 56.2 48 2.8 37.1
05:20 1023 30.21 852 25.16 13.5 56.2 48 2.7 36.8
05:25 1023 30.21 852 25.16 13.4 56.2 49 3 37.5
05:30 1023 30.21 852 25.16 13.2 55.8 51 3.3 37.9
05:35 1023 30.21 852 25.16 13.1 55.5 52 3.5 38.3
05:40 1023 30.21 853 25.19 12.9 55.1 53 3.7 38.6
05:45 1023 30.21 853 25.19 12.6 54.7 55 3.8 38.9
05:50 1023 30.21 853 25.19 12.3 54.2 55 3.7 38.6
05:55 1023 30.21 853 25.19 12.2 54 56 3.7 38.7
06:00 1024 30.24 853 25.19 12.1 53.7 57 3.8 38.8
06:05 1024 30.24 853 25.19 12 53.5 57 3.7 38.7
06:10 1024 30.24 853 25.19 11.9 53.3 58 3.8 38.9
06:15 1024 30.24 853 25.19 11.9 53.4 57 3.7 38.7
06:20 1024 30.24 853 25.19 11.9 53.4 58 4 39.2
06:25 1024 30.24 853 25.19 12 53.5 57 3.8 38.9
06:30 1024 30.24 853 25.19 12.1 53.7 56 3.7 38.7
06:35 1024 30.24 853 25.19 12.4 54.4 55 3.8 38.9
06:40 1024 30.24 853 25.19 12.4 54.4 55 3.8 38.8
06:45 1024 30.24 853 25.19 12.4 54.2 56 3.9 39
06:50 1024 30.24 853 25.19 12.4 54.4 56 3.9 39.1
06:55 1024 30.24 853 25.19 12.5 54.5 57 4.4 39.9
07:00 1024 30.24 853 25.19 12.7 54.8 57 4.4 39.9
07:05 1024 30.24 853 25.19 12.8 55 56 4.4 39.9
07:10 1024 30.24 853 25.19 13 55.4 57 4.8 40.6
07:15 1024 30.24 853 25.19 13.1 55.5 56 4.6 40.3
07:20 1024 30.24 853 25.19 13.3 56 57 5 40.9
07:25 1024 30.24 853 25.19 13.7 56.6 55 4.9 40.8
07:30 1024 30.24 853 25.19 14 57.1 54 5 41
07:35 1024 30.24 853 25.19 14.4 58 52 4.8 40.6
07:40 1024 30.24 853 25.19 14.9 58.8 51 4.8 40.7
07:45 1024 30.24 853 25.19 15 58.9 50 4.8 40.7
07:50 1024 30.24 853 25.19 15.5 59.8 50 5.1 41.2
07:55 1024 30.24 853 25.19 16.3 61.3 48 5.4 41.8
08:00 1024 30.24 853 25.19 16.6 61.9 50 6.1 43
08:05 1024 30.24 853 25.19 17.1 62.7 46 5.4 41.8
08:10 1024 30.24 853 25.19 17.1 62.8 44 5 40.9
08:15 1024 30.24 853 25.19 17.4 63.2 42 4.3 39.8
08:20 1024 30.24 853 25.19 17.4 63.3 42 4.5 40.2
08:25 1024 30.24 853 25.19 17.4 63.4 42 4.4 40
08:30 1024 30.24 853 25.19 18 64.4 38 3.6 38.5
08:35 1024 30.24 853 25.19 18.6 65.5 36 3.6 38.4
08:40 1024 30.24 853 25.19 18.6 65.5 36 3.4 38.1
08:45 1024 30.24 853 25.19 18.4 65.1 36 3.3 38
08:50 1024 30.24 853 25.19 18.7 65.7 35 3 37.4
08:55 1024 30.24 853 25.19 18.9 66 36 3.8 38.8
09:00 1024 30.24 853 25.19 19.1 66.4 37 4.2 39.6
09:05 1024 30.24 853 25.19 19.1 66.4 34 3.2 37.7
09:10 1024 30.24 853 25.19 19.1 66.4 36 3.7 38.7
09:15 1024 30.24 853 25.19 19.5 67.2 34 3.5 38.2
09:20 1024 30.24 853 25.19 19.7 67.4 35 4.1 39.5
09:25 1024 30.24 853 25.19 19.9 67.9 35 4 39.3
09:30 1024 30.24 853 25.19 19.9 67.9 35 4.3 39.7
09:35 1024 30.24 853 25.19 19.9 67.9 35 4.2 39.6
09:40 1024 30.24 853 25.19 19.6 67.3 35 3.7 38.7
09:45 1024 30.24 853 25.19 19.4 66.8 35 3.7 38.6
09:50 1024 30.24 853 25.19 20 68 33 3.5 38.3
09:55 1024 30.24 853 25.19 20.2 68.3 32 3.2 37.8
10:00 1024 30.24 853 25.19 20.3 68.5 33 3.6 38.4
10:05 1024 30.24 853 25.19 20 67.9 34 3.8 38.8
10:10 1024 30.24 853 25.19 19.6 67.2 32 2.7 36.9
10:15 1024 30.24 853 25.19 20.5 68.9 31 3 37.5
10:20 1024 30.24 853 25.19 20.9 69.5 30 2.8 37
10:25 1024 30.24 853 25.19 20.8 69.4 32 3.6 38.4
10:30 1024 30.24 853 25.19 21.1 70 30 3.3 37.9
10:35 1024 30.24 853 25.19 21.8 71.2 28 2.9 37.2
10:40 1024 30.24 853 25.19 21.7 71 29 3.1 37.6
10:45 1023 30.21 853 25.19 21.3 70.3 31 3.6 38.5
10:50 1023 30.21 853 25.19 21.4 70.5 31 3.6 38.5
10:55 1023 30.21 853 25.19 21 69.9 31 3.6 38.4
11:00 1023 30.21 853 25.19 21.7 71 29 3.3 37.9
11:05 1023 30.21 852 25.16 21.5 70.6 32 4.1 39.4
11:10 1023 30.21 852 25.16 20.6 69.1 32 3.4 38.2
11:15 1023 30.21 852 25.16 21.5 70.6 29 2.8 37.1
11:20 1023 30.21 852 25.16 22 71.6 29 3.4 38.1
11:25 1023 30.21 852 25.16 21.9 71.5 29 3.3 37.9
11:30 1023 30.21 852 25.16 22 71.5 29 3.1 37.6
11:35 1023 30.21 852 25.16 22.1 71.8 28 2.7 36.9
11:40 1023 30.21 852 25.16 22.3 72.1 30 4.2 39.5
11:45 1023 30.21 852 25.16 22.1 71.7 29 3.5 38.3
11:50 1023 30.21 852 25.16 22.6 72.8 28 3.6 38.5
11:55 1023 30.21 852 25.16 22.7 72.8 28 3.4 38.2
12:00 1023 30.21 852 25.16 22.2 71.9 29 3.3 38
12:05 1023 30.21 852 25.16 22.6 72.7 29 3.9 39.1
12:10 1023 30.21 852 25.16 22.5 72.5 29 3.7 38.6
12:15 1023 30.21 852 25.16 22.8 73.1 28 3.8 38.9
12:20 1023 30.21 852 25.16 23 73.5 28 3.8 38.8
12:25 1023 30.21 852 25.16 23.3 73.9 27 3.4 38.2
12:30 1023 30.21 852 25.16 23.1 73.5 29 4.2 39.5
12:35 1023 30.21 852 25.16 22.8 73 29 3.9 39.1
12:40 1023 30.21 852 25.16 22.6 72.6 29 3.6 38.5
12:45 1023 30.21 852 25.16 23.3 74 28 4.2 39.5
12:50 1023 30.21 852 25.16 23.3 74 28 4 39.3
12:55 1023 30.21 852 25.16 23.4 74.1 28 4.2 39.6
13:00 1022 30.18 852 25.16 24.1 75.4 28 4.5 40
13:05 1022 30.18 852 25.16 22.4 72.3 30 4.2 39.6
13:10 1022 30.18 852 25.16 22.4 72.3 29 3.7 38.7
13:15 1022 30.18 852 25.16 23.4 74 25 2.7 36.8
13:20 1022 30.18 852 25.16 23.7 74.6 26 3.2 37.7
13:25 1022 30.18 852 25.16 23.7 74.7 26 3.1 37.5
13:30 1022 30.18 852 25.16 24 75.1 26 3.5 38.4
13:35 1022 30.18 851 25.13 24.6 76.4 26 3.8 38.9
13:40 1022 30.18 851 25.13 24.8 76.6 25 3.7 38.7
13:45 1022 30.18 851 25.13 24.6 76.4 26 4.3 39.7
13:50 1022 30.18 851 25.13 24.8 76.7 26 4.1 39.3
13:55 1022 30.18 851 25.13 24.8 76.6 27 4.6 40.2
14:00 1022 30.18 851 25.13 25 77 27 4.9 40.9
14:05 1022 30.18 851 25.13 24.5 76.1 28 4.9 40.8
14:10 1022 30.18 851 25.13 24.7 76.5 27 4.6 40.3
14:15 1022 30.18 851 25.13 25.2 77.4 26 4.5 40.1
14:20 1022 30.18 851 25.13 25 77 25 4.1 39.4
14:25 1022 30.18 851 25.13 25.2 77.4 24 3.6 38.6
14:30 1022 30.18 851 25.13 25.1 77.1 24 3.4 38.1
14:35 1022 30.18 851 25.13 24.6 76.2 26 4 39.1
14:40 1022 30.18 851 25.13 25 77 26 4.1 39.4
14:45 1022 30.18 851 25.13 25.6 78.1 25 4.5 40.2
14:50 1022 30.18 851 25.13 25.4 77.7 26 4.6 40.4
14:55 1022 30.18 851 25.13 25.8 78.5 23 3.6 38.5
15:00 1022 30.18 851 25.13 26.2 79.2 23 3.4 38.2
15:05 1021 30.15 851 25.13 25.4 77.7 24 3.6 38.4
15:10 1021 30.15 851 25.13 25.6 78.1 24 3.7 38.7
15:15 1021 30.15 851 25.13 26.2 79.2 25 4.9 40.9
15:20 1021 30.15 851 25.13 25.9 78.5 26 5 41
15:25 1021 30.15 851 25.13 25.7 78.3 26 4.9 40.9
15:30 1021 30.15 851 25.13 25.4 77.7 27 5.1 41.1
15:35 1021 30.15 850 25.1 25 77.1 26 4.6 40.3
15:40 1021 30.15 850 25.1 25.3 77.5 26 4.8 40.7
15:45 1021 30.15 850 25.1 25.9 78.5 24 3.7 38.7
15:50 1021 30.15 850 25.1 25.3 77.6 24 3.7 38.6
15:55 1021 30.15 850 25.1 25.7 78.3 25 4.4 39.9
16:00 1021 30.15 850 25.1 26.4 79.5 24 4.3 39.7
16:05 1021 30.15 850 25.1 26.1 79 25 4.7 40.5
16:10 1021 30.15 850 25.1 25.7 78.2 24 3.8 38.9
16:15 1021 30.15 850 25.1 25.7 78.3 25 4.3 39.7
16:20 1021 30.15 850 25.1 25.8 78.4 25 4.7 40.4
16:25 1021 30.15 850 25.1 26.2 79.1 23 3.9 38.9
16:30 1021 30.15 850 25.1 26.5 79.6 23 4.1 39.4
16:35 1021 30.15 850 25.1 26.4 79.5 24 4.8 40.6
16:40 1021 30.15 850 25.1 26.5 79.6 25 4.9 40.8
16:45 1021 30.15 850 25.1 26.5 79.7 24 4.8 40.7
16:50 1021 30.15 850 25.1 26.6 79.8 23 4.2 39.5
16:55 1021 30.15 850 25.1 26.4 79.4 24 4.7 40.5
17:00 1020 30.12 850 25.1 25.5 77.8 25 4.4 39.9
17:05 1020 30.12 850 25.1 26 78.8 25 4.6 40.3
17:10 1020 30.12 850 25.1 25.7 78.3 25 4.7 40.5
17:15 1020 30.12 850 25.1 25.9 78.6 26 5 40.9
17:20 1020 30.12 849 25.07 26.6 79.8 25 5.2 41.3
17:25 1020 30.12 849 25.07 26.8 80.3 24 4.8 40.7
17:30 1020 30.12 849 25.07 26.8 80.3 25 5.5 41.8
17:35 1020 30.12 849 25.07 26.9 80.5 23 4.5 40
17:40 1020 30.12 849 25.07 26.9 80.5 23 4.5 40
17:45 1020 30.12 849 25.07 26.1 79 27 5.7 42.3
17:50 1020 30.12 849 25.07 25.5 77.8 26 4.8 40.7
17:55 1020 30.12 849 25.07 25.2 77.3 26 4.4 39.9
18:00 1020 30.12 849 25.07 25.4 77.6 25 4.1 39.5
18:05 1020 30.12 849 25.07 25.5 77.8 26 4.7 40.5
18:10 1020 30.12 849 25.07 25.9 78.6 24 4.1 39.4
18:15 1020 30.12 849 25.07 26.5 79.7 24 4.3 39.8
18:20 1020 30.12 849 25.07 26.5 79.6 24 4.7 40.5
18:25 1020 30.12 849 25.07 26.3 79.4 24 4.5 40
18:30 1020 30.12 849 25.07 26.4 79.6 23 3.9 38.9
18:35 1020 30.12 849 25.07 26.7 80.1 22 3.7 38.7
18:40 1020 30.12 849 25.07 26.7 80.1 23 4.4 40
18:45 1020 30.12 849 25.07 26.2 79.2 24 4.2 39.6
18:50 1020 30.12 849 25.07 25.7 78.2 25 4.2 39.5
18:55 1020 30.12 849 25.07 26.3 79.3 23 3.6 38.5
19:00 1020 30.12 849 25.07 26.6 79.8 23 3.8 38.9
19:05 1020 30.12 849 25.07 26.5 79.7 22 3.6 38.4
19:10 1020 30.12 849 25.07 26.2 79.2 24 4.2 39.6
19:15 1020 30.12 849 25.07 26.5 79.7 23 4 39.3
19:20 1020 30.12 849 25.07 26.2 79.1 24 4.4 40
19:25 1020 30.12 849 25.07 25.5 78 26 4.9 40.8
19:30 1020 30.12 849 25.07 25.4 77.7 26 4.6 40.2
19:35 1020 30.12 849 25.07 25.3 77.5 26 4.6 40.3
19:40 1020 30.12 849 25.07 25 77 27 4.7 40.4
19:45 1020 30.12 849 25.07 24.6 76.4 26 4.2 39.6
19:50 1020 30.12 849 25.07 24.6 76.2 27 4.6 40.2
19:55 1020 30.12 849 25.07 24.6 76.3 28 5.2 41.3
20:00 1020 30.12 849 25.07 24.5 76.1 28 4.8 40.7
20:05 1020 30.12 849 25.07 24.5 76 28 4.9 40.8
20:10 1020 30.12 849 25.07 24.6 76.3 28 5 41
20:15 1020 30.12 849 25.07 24.8 76.6 29 5.6 42.1
20:20 1020 30.12 849 25.07 24.5 76.1 30 5.9 42.6
20:25 1020 30.12 849 25.07 24.2 75.6 32 6.8 44.3
20:30 1020 30.12 849 25.07 24 75.3 30 5.8 42.5
20:35 1020 30.12 849 25.07 24 75.2 30 5.4 41.8
20:40 1020 30.12 849 25.07 23.9 75.1 31 6 42.8
20:45 1020 30.12 849 25.07 23.5 74.3 37 8 46.5
20:50 1020 30.12 849 25.07 22.9 73.2 37 7.5 45.4
20:55 1020 30.12 849 25.07 22.8 73.1 34 6.2 43.2
21:00 1020 30.12 849 25.07 22.9 73.3 39 8.6 47.4
21:05 1020 30.12 850 25.1 22.7 72.8 37 7.6 45.7
21:10 1020 30.12 850 25.1 22.3 72.1 41 8.4 47.2
21:15 1020 30.12 850 25.1 21.8 71.2 42 8.5 47.3
21:20 1020 30.12 850 25.1 21.3 70.4 44 8.6 47.5
21:25 1020 30.12 850 25.1 21 69.8 44 8.3 47
21:30 1021 30.15 850 25.1 20.9 69.6 44 8.5 47.2
21:35 1021 30.15 850 25.1 20.7 69.2 45 8.5 47.3
21:40 1021 30.15 850 25.1 20.5 69 46 8.5 47.3
21:45 1021 30.15 850 25.1 20.5 68.9 45 8.4 47
21:50 1021 30.15 850 25.1 20.4 68.7 45 8.3 46.9
21:55 1021 30.15 850 25.1 20.2 68.4 45 8.2 46.8
22:00 1021 30.15 850 25.1 20.3 68.6 45 8.1 46.6
22:05 1021 30.15 850 25.1 20.3 68.6 45 8.1 46.6
22:10 1021 30.15 850 25.1 20.3 68.5 45 8.2 46.8
22:15 1021 30.15 850 25.1 20.3 68.5 46 8.5 47.3
22:20 1021 30.15 850 25.1 20 68 47 8.6 47.5
22:25 1021 30.15 850 25.1 19.7 67.5 49 8.7 47.7
22:30 1021 30.15 850 25.1 19.6 67.3 49 8.9 47.9
22:35 1021 30.15 850 25.1 19.4 66.9 50 9 48.1
22:40 1021 30.15 850 25.1 19.2 66.6 51 9 48.2
22:45 1021 30.15 850 25.1 19.2 66.5 52 9.2 48.6
22:50 1021 30.15 850 25.1 19.2 66.5 52 9.3 48.7
22:55 1021 30.15 851 25.13 19.3 66.7 52 9.3 48.7
23:00 1021 30.15 851 25.13 19.3 66.8 52 9.4 49
23:05 1021 30.15 851 25.13 19.2 66.6 53 9.5 49
23:10 1021 30.15 850 25.1 19.2 66.5 53 9.6 49.2
23:15 1021 30.15 850 25.1 18.9 66 54 9.5 49.2
23:20 1021 30.15 850 25.1 18.9 65.9 54 9.5 49.1
23:25 1021 30.15 851 25.13 19 66.1 53 9.4 48.8
23:30 1021 30.15 851 25.13 19.1 66.3 53 9.4 48.9
23:35 1021 30.15 851 25.13 19.1 66.4 53 9.3 48.7
23:40 1022 30.18 851 25.13 19.1 66.4 53 9.3 48.8
23:45 1021 30.15 851 25.13 19.2 66.6 52 9.2 48.5
23:50 1021 30.15 851 25.13 19.4 66.9 51 9.2 48.6
23:55 1021 30.15 851 25.13 19.5 67 51 9.3 48.7
24:00 1021 30.15 851 25.13 19.5 67.1 51 9.3 48.7